createdAt,value
2022-10-10T00:01:36.080Z,79.17
2022-10-10T00:04:06.320Z,80.53
2022-10-10T00:06:33.931Z,81.88
2022-10-10T00:09:05.113Z,81.54
2022-10-10T00:11:32.504Z,80.83
2022-10-10T00:14:00.035Z,80.76
2022-10-10T00:16:27.665Z,82.17
2022-10-10T00:18:55.217Z,81.47
2022-10-10T00:21:22.415Z,78.93
2022-10-10T00:23:49.745Z,77.51
2022-10-10T00:26:19.288Z,77.62
2022-10-10T00:28:47.692Z,76.97
2022-10-10T00:31:15.526Z,76.53
2022-10-10T00:33:42.804Z,79.43
2022-10-10T00:36:10.533Z,81.50
2022-10-10T00:38:37.800Z,81.75
2022-10-10T00:41:06.029Z,79.11
2022-10-10T00:43:34.669Z,78.57
2022-10-10T00:46:01.983Z,78.01
2022-10-10T00:48:37.546Z,77.79
2022-10-10T00:51:18.921Z,79.48
2022-10-10T00:54:02.393Z,78.84
2022-10-10T00:56:37.992Z,77.83
2022-10-10T00:59:08.753Z,78.09
2022-10-10T01:01:35.861Z,77.58
2022-10-10T01:04:06.167Z,77.17
2022-10-10T01:06:35.779Z,76.79
2022-10-10T01:09:03.812Z,77.86
2022-10-10T01:12:00.965Z,77.05
2022-10-10T01:14:30.540Z,77.24
2022-10-10T01:17:29.536Z,76.96
2022-10-10T01:20:37.201Z,77.20
2022-10-10T01:23:36.166Z,77.63
2022-10-10T01:26:40.013Z,77.57
2022-10-10T01:29:39.155Z,77.12
2022-10-10T01:32:38.149Z,79.88
2022-10-10T01:35:37.612Z,78.11
2022-10-10T01:38:45.885Z,77.67
2022-10-10T01:41:43.426Z,77.06
2022-10-10T01:44:12.996Z,78.88
2022-10-10T01:46:40.123Z,78.32
2022-10-10T01:49:07.437Z,79.35
2022-10-10T01:52:08.136Z,81.11
2022-10-10T01:55:18.670Z,80.21
2022-10-10T01:57:59.706Z,81.04
2022-10-10T02:00:27.178Z,80.62
2022-10-10T02:03:00.024Z,81.10
2022-10-10T02:06:00.649Z,80.86
2022-10-10T02:08:45.626Z,81.78
2022-10-10T02:11:13.424Z,80.97
2022-10-10T02:14:03.114Z,80.38
2022-10-10T02:16:39.009Z,79.81
2022-10-10T02:19:14.338Z,80.08
2022-10-10T02:21:42.801Z,79.35
2022-10-10T02:24:12.496Z,79.09
2022-10-10T02:26:44.356Z,79.25
2022-10-10T02:29:19.516Z,79.89
2022-10-10T02:32:00.249Z,80.59
2022-10-10T02:34:38.698Z,80.16
2022-10-10T02:37:12.629Z,80.70
2022-10-10T02:39:49.326Z,80.81
2022-10-10T02:42:21.586Z,82.18
2022-10-10T02:44:48.747Z,83.87
2022-10-10T02:47:19.222Z,83.99
2022-10-10T02:49:53.887Z,83.49
2022-10-10T02:52:21.203Z,84.16
2022-10-10T02:54:50.807Z,84.00
2022-10-10T02:57:18.020Z,83.59
2022-10-10T02:59:45.198Z,83.76
2022-10-10T03:02:12.452Z,84.56
2022-10-10T03:04:40.120Z,85.30
2022-10-10T03:07:09.293Z,85.12
2022-10-10T03:09:36.511Z,84.85
2022-10-10T03:12:04.369Z,84.79
2022-10-10T03:14:31.579Z,84.92
2022-10-10T03:16:59.320Z,85.83
2022-10-10T03:19:26.881Z,84.93
2022-10-10T03:21:56.560Z,84.95
2022-10-10T03:24:23.670Z,85.58
2022-10-10T03:26:50.970Z,85.97
2022-10-10T03:29:18.301Z,85.79
2022-10-10T03:31:45.547Z,87.10
2022-10-10T03:34:12.738Z,87.79
2022-10-10T03:36:39.830Z,87.26
2022-10-10T03:39:09.399Z,87.93
2022-10-10T03:41:41.592Z,87.41
2022-10-10T03:44:08.767Z,87.04
2022-10-10T03:46:35.891Z,86.86
2022-10-10T03:49:03.086Z,87.74
2022-10-10T03:51:32.464Z,87.01
2022-10-10T03:53:59.649Z,87.20
2022-10-10T03:56:26.907Z,86.84
2022-10-10T03:59:00.704Z,87.62
2022-10-10T04:01:30.765Z,88.54
2022-10-10T04:03:58.264Z,87.38
2022-10-10T04:06:28.359Z,86.32
2022-10-10T04:08:55.630Z,87.60
2022-10-10T04:11:23.019Z,88.50
2022-10-10T04:13:50.201Z,88.80
2022-10-10T04:16:19.954Z,88.88
2022-10-10T04:18:47.131Z,88.50
2022-10-10T04:21:14.289Z,87.18
2022-10-10T04:23:41.553Z,85.83
2022-10-10T04:26:09.128Z,85.95
2022-10-10T04:28:36.650Z,85.48
2022-10-10T04:31:04.640Z,85.16
2022-10-10T04:33:31.769Z,85.77
2022-10-10T04:36:01.446Z,86.32
2022-10-10T04:38:29.227Z,85.74
2022-10-10T04:40:56.474Z,85.51
2022-10-10T04:43:23.902Z,85.46
2022-10-10T04:45:51.085Z,86.03
2022-10-10T04:48:18.249Z,87.08
2022-10-10T04:50:51.072Z,87.49
2022-10-10T04:53:18.409Z,87.65
2022-10-10T04:55:50.347Z,87.10
2022-10-10T04:58:18.410Z,87.54
2022-10-10T05:00:46.106Z,88.43
2022-10-10T05:03:13.727Z,87.82
2022-10-10T05:05:42.063Z,87.35
2022-10-10T05:08:09.469Z,86.90
2022-10-10T05:10:39.444Z,86.79
2022-10-10T05:13:14.553Z,86.32
2022-10-10T05:15:42.960Z,87.66
2022-10-10T05:18:10.297Z,87.27
2022-10-10T05:20:37.548Z,87.51
2022-10-10T05:23:07.461Z,86.24
2022-10-10T05:25:34.667Z,86.92
2022-10-10T05:28:01.720Z,86.54
2022-10-10T05:30:28.800Z,85.93
2022-10-10T05:32:56.403Z,86.03
2022-10-10T05:35:23.515Z,86.89
2022-10-10T05:37:52.594Z,87.28
2022-10-10T05:40:19.843Z,88.03
2022-10-10T05:42:46.915Z,87.75
2022-10-10T05:45:13.987Z,87.14
2022-10-10T05:47:41.120Z,87.75
2022-10-10T05:50:34.617Z,87.00
2022-10-10T05:53:01.884Z,87.19
2022-10-10T05:55:29.077Z,84.65
2022-10-10T05:57:58.700Z,82.85
2022-10-10T06:00:26.003Z,81.42
2022-10-10T06:02:53.683Z,79.67
2022-10-10T06:05:21.173Z,81.10
2022-10-10T06:08:04.592Z,77.05
2022-10-10T06:10:44.128Z,76.04
2022-10-10T06:13:14.997Z,72.25
2022-10-10T06:15:42.247Z,70.82
2022-10-10T06:18:09.739Z,69.29
2022-10-10T06:20:41.359Z,68.02
2022-10-10T06:23:09.397Z,66.90
2022-10-10T06:25:41.734Z,66.52
2022-10-10T06:28:10.712Z,64.73
2022-10-10T06:30:44.862Z,67.84
2022-10-10T06:33:13.037Z,63.52
2022-10-10T06:35:42.894Z,61.39
2022-10-10T06:38:14.263Z,60.79
2022-10-10T06:40:41.925Z,59.88
2022-10-10T06:43:13.045Z,59.27
2022-10-10T06:45:43.866Z,57.55
2022-10-10T06:48:13.234Z,59.00
2022-10-10T06:50:40.522Z,57.45
2022-10-10T06:53:07.879Z,58.23
2022-10-10T06:55:35.026Z,56.75
2022-10-10T06:58:02.278Z,57.15
2022-10-10T07:00:29.439Z,55.14
2022-10-10T07:02:56.498Z,53.97
2022-10-10T07:05:25.860Z,52.91
2022-10-10T07:07:53.327Z,54.16
2022-10-10T07:10:20.580Z,52.85
2022-10-10T07:12:47.661Z,56.62
2022-10-10T07:15:14.860Z,55.81
2022-10-10T07:17:44.571Z,54.86
2022-10-10T07:20:11.772Z,53.21
2022-10-10T07:22:41.382Z,50.05
2022-10-10T07:25:08.943Z,49.01
2022-10-10T07:27:36.084Z,47.61
2022-10-10T07:30:03.353Z,52.63
2022-10-10T07:32:32.924Z,46.79
2022-10-10T07:34:59.976Z,47.39
2022-10-10T07:37:27.125Z,44.42
2022-10-10T07:39:54.944Z,43.02
2022-10-10T07:42:25.231Z,45.66
2022-10-10T07:44:52.379Z,46.11
2022-10-10T07:47:19.467Z,44.36
2022-10-10T07:49:46.509Z,46.33
2022-10-10T07:52:13.626Z,49.09
2022-10-10T07:54:40.741Z,45.55
2022-10-10T07:57:07.836Z,48.78
2022-10-10T07:59:34.998Z,47.81
2022-10-10T08:02:02.121Z,46.12
2022-10-10T08:04:30.054Z,47.80
2022-10-10T08:06:57.311Z,47.08
2022-10-10T08:09:24.789Z,47.32
2022-10-10T08:11:52.153Z,49.65
2022-10-10T08:14:21.800Z,52.68
2022-10-10T08:16:53.204Z,48.69
2022-10-10T08:19:22.756Z,43.56
2022-10-10T08:21:50.614Z,43.85
2022-10-10T08:24:20.223Z,43.71
2022-10-10T08:26:47.603Z,42.43
2022-10-10T08:29:17.108Z,42.22
2022-10-10T08:31:44.321Z,45.77
2022-10-10T08:34:11.795Z,46.28
2022-10-10T08:36:39.102Z,44.76
2022-10-10T08:39:08.918Z,43.40
2022-10-10T08:42:00.751Z,44.97
2022-10-10T08:44:43.722Z,41.81
2022-10-10T08:47:10.674Z,47.82
2022-10-10T08:49:59.333Z,46.66
2022-10-10T08:53:02.790Z,47.90
2022-10-10T08:55:38.382Z,46.89
2022-10-10T08:58:27.013Z,46.20
2022-10-10T09:01:19.488Z,47.05
2022-10-10T09:03:53.732Z,49.98
2022-10-10T09:07:00.671Z,49.60
2022-10-10T09:09:58.532Z,47.19
2022-10-10T09:12:33.818Z,48.28
2022-10-10T09:15:45.785Z,46.53
2022-10-10T09:19:14.783Z,48.88
2022-10-10T09:21:46.034Z,49.87
2022-10-10T09:24:41.106Z,47.17
2022-10-10T09:27:19.541Z,45.83
2022-10-10T09:30:18.050Z,45.68
2022-10-10T09:33:32.112Z,49.47
2022-10-10T09:36:03.289Z,48.18
2022-10-10T09:38:44.718Z,50.01
2022-10-10T09:41:43.763Z,50.75
2022-10-10T09:44:21.753Z,52.19
2022-10-10T09:46:51.742Z,50.71
2022-10-10T09:49:22.586Z,47.62
2022-10-10T09:51:50.473Z,49.72
2022-10-10T09:54:19.916Z,45.62
2022-10-10T09:56:53.714Z,49.27
2022-10-10T09:59:42.229Z,51.59
2022-10-10T10:02:21.057Z,48.38
2022-10-10T10:04:52.754Z,45.39
2022-10-10T10:07:34.243Z,47.61
2022-10-10T10:10:22.118Z,45.42
2022-10-10T10:12:49.953Z,48.98
2022-10-10T10:15:21.381Z,49.55
2022-10-10T10:18:17.712Z,49.52
2022-10-10T10:20:46.094Z,46.30
2022-10-10T10:23:43.053Z,45.17
2022-10-10T10:26:30.005Z,47.96
2022-10-10T10:28:58.351Z,46.56
2022-10-10T10:31:48.548Z,43.24
2022-10-10T10:34:46.863Z,43.31
2022-10-10T10:37:33.052Z,44.52
2022-10-10T10:40:20.024Z,44.41
2022-10-10T10:43:11.666Z,44.06
2022-10-10T10:45:47.731Z,42.96
2022-10-10T10:48:40.657Z,42.66
2022-10-10T10:51:36.519Z,44.64
2022-10-10T10:54:52.613Z,46.88
2022-10-10T11:01:23.156Z,45.04
2022-10-10T11:05:15.770Z,45.95
2022-10-10T11:07:20.074Z,45.21
2022-10-10T11:10:14.004Z,46.97
2022-10-10T11:13:29.204Z,46.06
2022-10-10T11:16:46.903Z,46.34
2022-10-10T11:19:14.337Z,46.04
2022-10-10T11:22:02.013Z,44.99
2022-10-10T11:24:41.019Z,42.36
2022-10-10T11:27:27.004Z,45.53
2022-10-10T11:30:04.496Z,45.12
2022-10-10T11:33:19.969Z,43.90
2022-10-10T11:36:06.996Z,43.58
2022-10-10T11:38:52.706Z,45.44
2022-10-10T11:41:40.206Z,46.07
2022-10-10T11:44:27.573Z,43.66
2022-10-10T11:47:16.810Z,45.17
2022-10-10T11:50:13.781Z,43.73
2022-10-10T11:53:30.528Z,43.50
2022-10-10T11:56:04.222Z,43.54
2022-10-10T11:58:40.106Z,45.17
2022-10-10T12:01:33.081Z,44.02
2022-10-10T12:04:02.667Z,42.97
2022-10-10T12:06:43.382Z,45.07
2022-10-10T12:09:23.023Z,44.84
2022-10-10T12:12:28.666Z,43.16
2022-10-10T12:15:02.205Z,44.35
2022-10-10T12:17:34.332Z,45.54
2022-10-10T12:20:27.793Z,46.90
2022-10-10T12:23:31.683Z,43.97
2022-10-10T12:25:59.791Z,44.76
2022-10-10T12:28:35.437Z,46.99
2022-10-10T12:31:05.954Z,46.60
2022-10-10T12:33:33.221Z,47.02
2022-10-10T12:36:21.343Z,48.10
2022-10-10T12:39:11.220Z,46.40
2022-10-10T12:41:57.264Z,46.56
2022-10-10T12:44:34.666Z,45.96
2022-10-10T12:47:17.001Z,45.86
2022-10-10T12:49:55.198Z,45.67
2022-10-10T12:52:35.968Z,47.06
2022-10-10T12:55:19.167Z,47.77
2022-10-10T12:57:48.903Z,47.15
2022-10-10T13:00:23.752Z,47.05
2022-10-10T13:02:59.475Z,47.14
2022-10-10T13:05:32.039Z,46.77
2022-10-10T13:08:06.115Z,46.98
2022-10-10T13:10:33.931Z,48.39
2022-10-10T13:13:19.245Z,46.51
2022-10-10T13:15:59.690Z,46.39
2022-10-10T13:19:00.341Z,44.92
2022-10-10T13:21:35.119Z,46.73
2022-10-10T13:24:06.177Z,47.97
2022-10-10T13:26:43.547Z,47.92
2022-10-10T13:29:36.764Z,49.09
2022-10-10T13:32:13.829Z,49.64
2022-10-10T13:34:49.278Z,50.17
2022-10-10T13:37:20.173Z,50.70
2022-10-10T13:39:50.784Z,50.73
2022-10-10T13:42:32.798Z,50.66
2022-10-10T13:45:03.208Z,50.97
2022-10-10T13:48:02.710Z,51.45
2022-10-10T13:50:47.838Z,51.34
2022-10-10T13:53:29.301Z,52.20
2022-10-10T13:56:44.185Z,51.79
2022-10-10T13:59:15.646Z,52.16
2022-10-10T14:01:49.821Z,52.66
2022-10-10T14:04:30.460Z,52.61
2022-10-10T14:07:14.846Z,52.17
2022-10-10T14:09:53.394Z,53.45
2022-10-10T14:12:56.536Z,53.10
2022-10-10T14:15:50.335Z,52.47
2022-10-10T14:18:20.109Z,53.47
2022-10-10T14:20:49.061Z,53.40
2022-10-10T14:23:17.360Z,52.61
2022-10-10T14:25:48.288Z,53.46
2022-10-10T14:28:27.469Z,53.27
2022-10-10T14:30:55.076Z,54.35
2022-10-10T14:33:22.589Z,54.19
2022-10-10T14:35:52.780Z,53.54
2022-10-10T14:38:20.493Z,54.20
2022-10-10T14:40:51.193Z,53.60
2022-10-10T14:43:22.611Z,54.99
2022-10-10T14:45:55.785Z,54.71
2022-10-10T14:48:25.442Z,53.98
2022-10-10T14:50:55.575Z,54.37
2022-10-10T14:53:22.867Z,54.60
2022-10-10T14:55:55.308Z,54.38
2022-10-10T14:58:25.785Z,54.43
2022-10-10T15:00:53.411Z,55.12
2022-10-10T15:03:21.844Z,54.43
2022-10-10T15:05:51.470Z,55.20
2022-10-10T15:08:27.385Z,55.68
2022-10-10T15:10:58.598Z,55.35
2022-10-10T15:13:25.707Z,54.73
2022-10-10T15:15:52.770Z,55.60
2022-10-10T15:18:47.838Z,54.84
2022-10-10T15:21:12.235Z,55.45
2022-10-10T15:23:42.228Z,54.99
2022-10-10T15:26:09.294Z,55.82
2022-10-10T15:28:36.775Z,56.54
2022-10-10T15:31:05.019Z,56.11
2022-10-10T15:33:32.497Z,56.40
2022-10-10T15:36:11.493Z,56.02
2022-10-10T15:38:40.074Z,57.48
2022-10-10T15:41:10.098Z,57.41
2022-10-10T15:43:45.452Z,56.82
2022-10-10T15:46:12.738Z,56.79
2022-10-10T15:48:42.266Z,57.49
2022-10-10T15:51:09.615Z,57.71
2022-10-10T15:53:37.305Z,58.36
2022-10-10T15:56:16.545Z,57.78
2022-10-10T15:58:45.008Z,58.35
2022-10-10T16:01:20.075Z,58.97
2022-10-10T16:03:49.511Z,59.02
2022-10-10T16:06:19.598Z,59.24
2022-10-10T16:08:55.732Z,58.94
2022-10-10T16:11:31.414Z,60.15
2022-10-10T16:13:58.484Z,59.69
2022-10-10T16:16:25.839Z,59.40
2022-10-10T16:18:52.930Z,59.55
2022-10-10T16:21:24.881Z,60.30
2022-10-10T16:23:57.848Z,59.81
2022-10-10T16:26:32.259Z,60.53
2022-10-10T16:29:04.960Z,60.59
2022-10-10T16:31:35.260Z,61.29
2022-10-10T16:34:03.029Z,61.49
2022-10-10T16:36:33.546Z,61.87
2022-10-10T16:39:01.040Z,62.13
2022-10-10T16:41:49.456Z,62.06
2022-10-10T16:44:17.694Z,63.15
2022-10-10T16:46:45.093Z,61.83
2022-10-10T16:49:17.025Z,61.92
2022-10-10T16:51:44.216Z,61.77
2022-10-10T16:54:11.614Z,62.27
2022-10-10T16:56:41.957Z,62.31
2022-10-10T16:59:14.384Z,61.70
2022-10-10T17:01:41.682Z,61.96
2022-10-10T17:04:08.921Z,61.70
2022-10-10T17:06:38.569Z,61.03
2022-10-10T17:09:08.426Z,61.80
2022-10-10T17:11:38.629Z,61.78
2022-10-10T17:14:05.974Z,61.26
2022-10-10T17:19:23.604Z,61.51
2022-10-10T17:21:50.727Z,60.71
2022-10-10T17:24:17.955Z,61.45
2022-10-10T17:26:47.469Z,60.61
2022-10-10T17:29:14.890Z,60.60
2022-10-10T17:31:42.065Z,60.06
2022-10-10T17:34:09.205Z,60.30
2022-10-10T17:36:38.783Z,59.40
2022-10-10T17:39:07.617Z,59.79
2022-10-10T17:41:35.022Z,59.31
2022-10-10T17:44:02.134Z,59.47
2022-10-10T17:46:36.089Z,58.74
2022-10-10T17:49:10.155Z,58.98
2022-10-10T17:51:39.979Z,58.51
2022-10-10T17:54:08.236Z,58.03
2022-10-10T17:56:36.231Z,58.51
2022-10-10T17:59:06.536Z,57.10
2022-10-10T18:01:35.512Z,56.78
2022-10-10T18:04:02.739Z,56.80
2022-10-10T18:06:31.071Z,56.34
2022-10-10T18:08:58.998Z,55.66
2022-10-10T18:11:31.649Z,55.79
2022-10-10T18:14:02.486Z,54.92
2022-10-10T18:16:34.245Z,55.63
2022-10-10T18:19:03.947Z,55.91
2022-10-10T18:21:31.682Z,54.54
2022-10-10T18:24:01.221Z,55.17
2022-10-10T18:26:32.109Z,54.78
2022-10-10T18:28:59.328Z,54.19
2022-10-10T18:31:34.082Z,55.03
2022-10-10T18:34:03.652Z,54.80
2022-10-10T18:36:35.596Z,54.84
2022-10-10T18:39:11.826Z,54.51
2022-10-10T18:41:39.286Z,54.84
2022-10-10T18:44:14.073Z,54.89
2022-10-10T18:46:41.412Z,54.65
2022-10-10T18:49:10.657Z,54.38
2022-10-10T18:51:41.360Z,55.12
2022-10-10T18:54:12.024Z,55.27
2022-10-10T18:56:41.510Z,55.32
2022-10-10T18:59:16.080Z,55.85
2022-10-10T19:01:45.753Z,55.31
2022-10-10T19:04:15.302Z,55.85
2022-10-10T19:06:43.953Z,55.98
2022-10-10T19:09:16.099Z,55.06
2022-10-10T19:11:46.085Z,55.81
2022-10-10T19:14:18.196Z,54.83
2022-10-10T19:16:47.523Z,55.59
2022-10-10T19:19:21.285Z,56.02
2022-10-10T19:21:49.615Z,56.05
2022-10-10T19:24:21.265Z,56.24
2022-10-10T19:26:56.862Z,55.70
2022-10-10T19:29:26.531Z,56.17
2022-10-10T19:31:53.888Z,56.98
2022-10-10T19:34:21.165Z,55.76
2022-10-10T19:36:48.477Z,55.82
2022-10-10T19:39:15.693Z,56.16
2022-10-10T19:41:43.083Z,56.28
2022-10-10T19:44:10.295Z,56.72
2022-10-10T19:46:37.891Z,56.43
2022-10-10T19:49:05.893Z,56.92
2022-10-10T19:51:33.016Z,55.81
2022-10-10T19:54:00.225Z,56.66
2022-10-10T19:56:27.774Z,57.41
2022-10-10T19:59:00.684Z,57.27
2022-10-10T20:01:30.585Z,56.45
2022-10-10T20:03:59.385Z,56.98
2022-10-10T20:06:27.748Z,57.83
2022-10-10T20:08:55.212Z,57.38
2022-10-10T20:11:23.412Z,57.61
2022-10-10T20:13:55.439Z,57.03
2022-10-10T20:16:24.326Z,57.43
2022-10-10T20:18:54.715Z,58.28
2022-10-10T20:21:31.659Z,57.75
2022-10-10T20:24:11.073Z,57.78
2022-10-10T20:26:38.488Z,57.77
2022-10-10T20:29:06.922Z,57.88
2022-10-10T20:31:36.449Z,59.02
2022-10-10T20:34:08.580Z,58.52
2022-10-10T20:36:36.478Z,59.72
2022-10-10T20:39:08.416Z,60.04
2022-10-10T20:41:39.731Z,59.01
2022-10-10T20:44:10.723Z,59.69
2022-10-10T20:46:42.408Z,59.13
2022-10-10T20:49:20.052Z,59.43
2022-10-10T20:51:55.390Z,59.72
2022-10-10T20:54:24.463Z,59.81
2022-10-10T20:56:54.219Z,59.43
2022-10-10T20:59:24.755Z,59.36
2022-10-10T21:01:52.219Z,59.69
2022-10-10T21:04:19.526Z,60.04
2022-10-10T21:06:51.534Z,60.19
2022-10-10T21:09:19.676Z,59.82
2022-10-10T21:11:50.862Z,59.34
2022-10-10T21:14:19.563Z,60.08
2022-10-10T21:16:47.003Z,59.72
2022-10-10T21:19:14.761Z,59.11
2022-10-10T21:21:42.109Z,59.23
2022-10-10T21:24:11.459Z,58.76
2022-10-10T21:26:40.293Z,59.17
2022-10-10T21:29:07.885Z,58.92
2022-10-10T21:31:38.808Z,61.29
2022-10-10T21:34:13.587Z,60.61
2022-10-10T21:36:41.665Z,59.94
2022-10-10T21:39:08.988Z,59.95
2022-10-10T21:41:37.344Z,60.35
2022-10-10T21:44:04.872Z,61.86
2022-10-10T21:46:37.097Z,61.13
2022-10-10T21:49:10.181Z,59.91
2022-10-10T21:51:43.081Z,59.63
2022-10-10T21:54:12.916Z,59.56
2022-10-10T21:56:40.845Z,60.80
2022-10-10T21:59:11.282Z,61.40
2022-10-10T22:01:38.784Z,61.43
2022-10-10T22:04:06.564Z,61.69
2022-10-10T22:06:34.029Z,62.36
2022-10-10T22:09:03.135Z,62.98
2022-10-10T22:11:32.965Z,63.50
2022-10-10T22:14:02.599Z,64.07
2022-10-10T22:16:31.909Z,63.71
2022-10-10T22:19:00.072Z,63.63
2022-10-10T22:21:31.828Z,63.33
2022-10-10T22:24:05.096Z,64.28
2022-10-10T22:26:33.873Z,65.91
2022-10-10T22:29:04.681Z,64.16
2022-10-10T22:31:31.875Z,64.85
2022-10-10T22:33:59.117Z,64.67
2022-10-10T22:36:26.338Z,64.80
2022-10-10T22:38:53.533Z,65.16
2022-10-10T22:41:20.681Z,66.07
2022-10-10T22:43:48.188Z,65.56
2022-10-10T22:46:15.806Z,65.50
2022-10-10T22:48:43.205Z,66.80
2022-10-10T22:51:16.936Z,67.62
2022-10-10T22:53:45.756Z,66.42
2022-10-10T22:56:16.654Z,67.27
2022-10-10T22:58:47.890Z,68.82
2022-10-10T23:01:19.184Z,70.01
2022-10-10T23:03:46.809Z,69.08
2022-10-10T23:06:15.562Z,69.37
2022-10-10T23:08:45.273Z,69.15
2022-10-10T23:11:12.403Z,69.32
2022-10-10T23:13:39.522Z,70.41
2022-10-10T23:16:07.572Z,69.50
2022-10-10T23:18:35.050Z,69.65
2022-10-10T23:21:02.367Z,69.72
2022-10-10T23:23:29.705Z,69.61
2022-10-10T23:25:56.854Z,71.00
2022-10-10T23:28:24.175Z,69.82
2022-10-10T23:30:51.376Z,70.59
2022-10-10T23:33:18.500Z,70.37
2022-10-10T23:36:03.122Z,70.31
2022-10-10T23:38:30.904Z,70.04
2022-10-10T23:40:58.035Z,70.52
2022-10-10T23:43:25.206Z,70.70
2022-10-10T23:45:52.824Z,70.80
2022-10-10T23:48:20.005Z,70.79
2022-10-10T23:50:49.860Z,71.66
2022-10-10T23:53:17.056Z,70.68
2022-10-10T23:55:44.223Z,71.99
2022-10-10T23:58:11.374Z,72.46
